sensor_id;sensor_type;location;lat;lon;timestamp;P1;durP1;ratioP1;P2;durP2;ratioP2
53907;SDS011;40469;47.998;7.794;2023-04-24T00:01:39;810.00;;;394.33;;
53907;SDS011;40469;47.998;7.794;2023-04-24T00:04:05;805.20;;;400.88;;
53907;SDS011;40469;47.998;7.794;2023-04-24T00:06:32;794.30;;;362.05;;
53907;SDS011;40469;47.998;7.794;2023-04-24T00:09:02;802.60;;;358.30;;
53907;SDS011;40469;47.998;7.794;2023-04-24T00:11:28;805.10;;;370.10;;
53907;SDS011;40469;47.998;7.794;2023-04-24T00:13:54;798.90;;;392.95;;
53907;SDS011;40469;47.998;7.794;2023-04-24T00:16:20;805.55;;;397.02;;
53907;SDS011;40469;47.998;7.794;2023-04-24T00:18:46;809.40;;;389.65;;
53907;SDS011;40469;47.998;7.794;2023-04-24T00:21:12;814.13;;;367.00;;
53907;SDS011;40469;47.998;7.794;2023-04-24T00:23:38;816.85;;;374.60;;
53907;SDS011;40469;47.998;7.794;2023-04-24T00:26:04;828.42;;;397.02;;
53907;SDS011;40469;47.998;7.794;2023-04-24T00:28:29;794.75;;;364.60;;
53907;SDS011;40469;47.998;7.794;2023-04-24T00:30:54;817.08;;;392.02;;
53907;SDS011;40469;47.998;7.794;2023-04-24T00:33:20;805.00;;;395.75;;
53907;SDS011;40469;47.998;7.794;2023-04-24T00:35:45;818.75;;;403.25;;
53907;SDS011;40469;47.998;7.794;2023-04-24T00:38:10;810.83;;;392.60;;
53907;SDS011;40469;47.998;7.794;2023-04-24T00:40:36;814.92;;;397.23;;
53907;SDS011;40469;47.998;7.794;2023-04-24T00:43:01;808.08;;;367.63;;
53907;SDS011;40469;47.998;7.794;2023-04-24T00:45:27;778.97;;;362.50;;
53907;SDS011;40469;47.998;7.794;2023-04-24T00:47:53;796.85;;;367.45;;
53907;SDS011;40469;47.998;7.794;2023-04-24T00:50:18;783.22;;;382.73;;
53907;SDS011;40469;47.998;7.794;2023-04-24T00:52:46;787.58;;;366.40;;
53907;SDS011;40469;47.998;7.794;2023-04-24T00:55:12;770.75;;;406.08;;
53907;SDS011;40469;47.998;7.794;2023-04-24T00:57:37;762.60;;;414.33;;
53907;SDS011;40469;47.998;7.794;2023-04-24T01:00:03;770.63;;;411.27;;
53907;SDS011;40469;47.998;7.794;2023-04-24T01:02:30;783.22;;;390.25;;
53907;SDS011;40469;47.998;7.794;2023-04-24T01:04:59;786.22;;;384.35;;
53907;SDS011;40469;47.998;7.794;2023-04-24T01:07:26;796.25;;;385.00;;
53907;SDS011;40469;47.998;7.794;2023-04-24T01:09:52;787.15;;;392.95;;
53907;SDS011;40469;47.998;7.794;2023-04-24T01:12:18;797.00;;;413.38;;
53907;SDS011;40469;47.998;7.794;2023-04-24T01:14:44;803.28;;;414.98;;
53907;SDS011;40469;47.998;7.794;2023-04-24T01:17:10;762.42;;;424.45;;
53907;SDS011;40469;47.998;7.794;2023-04-24T01:19:35;785.90;;;417.88;;
53907;SDS011;40469;47.998;7.794;2023-04-24T01:22:02;794.63;;;402.17;;
53907;SDS011;40469;47.998;7.794;2023-04-24T01:24:28;799.33;;;414.73;;
53907;SDS011;40469;47.998;7.794;2023-04-24T01:26:54;799.65;;;394.75;;
53907;SDS011;40469;47.998;7.794;2023-04-24T01:29:20;804.08;;;415.27;;
53907;SDS011;40469;47.998;7.794;2023-04-24T01:31:46;797.28;;;407.63;;
53907;SDS011;40469;47.998;7.794;2023-04-24T01:34:11;792.95;;;404.67;;
53907;SDS011;40469;47.998;7.794;2023-04-24T01:36:37;791.17;;;385.95;;
53907;SDS011;40469;47.998;7.794;2023-04-24T01:39:03;789.58;;;386.30;;
53907;SDS011;40469;47.998;7.794;2023-04-24T01:41:29;790.80;;;390.02;;
53907;SDS011;40469;47.998;7.794;2023-04-24T01:43:55;788.38;;;403.17;;
53907;SDS011;40469;47.998;7.794;2023-04-24T01:46:22;779.08;;;405.48;;
53907;SDS011;40469;47.998;7.794;2023-04-24T01:48:49;774.95;;;387.77;;
53907;SDS011;40469;47.998;7.794;2023-04-24T01:51:16;774.85;;;411.52;;
53907;SDS011;40469;47.998;7.794;2023-04-24T01:53:42;763.67;;;385.10;;
53907;SDS011;40469;47.998;7.794;2023-04-24T01:56:07;762.67;;;385.67;;
53907;SDS011;40469;47.998;7.794;2023-04-24T01:58:33;771.03;;;406.65;;
53907;SDS011;40469;47.998;7.794;2023-04-24T02:00:59;767.22;;;412.42;;
53907;SDS011;40469;47.998;7.794;2023-04-24T02:03:25;763.10;;;403.58;;
53907;SDS011;40469;47.998;7.794;2023-04-24T02:05:51;762.63;;;381.42;;
53907;SDS011;40469;47.998;7.794;2023-04-24T02:08:16;760.22;;;386.55;;
53907;SDS011;40469;47.998;7.794;2023-04-24T02:10:42;763.03;;;380.33;;
53907;SDS011;40469;47.998;7.794;2023-04-24T02:13:07;759.50;;;384.60;;
53907;SDS011;40469;47.998;7.794;2023-04-24T02:15:33;765.85;;;396.60;;
53907;SDS011;40469;47.998;7.794;2023-04-24T02:17:58;763.60;;;390.40;;
53907;SDS011;40469;47.998;7.794;2023-04-24T02:20:23;761.42;;;386.65;;
53907;SDS011;40469;47.998;7.794;2023-04-24T02:22:49;765.10;;;405.00;;
53907;SDS011;40469;47.998;7.794;2023-04-24T02:25:14;763.13;;;384.55;;
53907;SDS011;40469;47.998;7.794;2023-04-24T02:27:40;759.70;;;387.30;;
53907;SDS011;40469;47.998;7.794;2023-04-24T02:30:05;765.97;;;391.45;;
53907;SDS011;40469;47.998;7.794;2023-04-24T02:32:32;768.35;;;410.70;;
53907;SDS011;40469;47.998;7.794;2023-04-24T02:34:58;771.13;;;408.95;;
53907;SDS011;40469;47.998;7.794;2023-04-24T02:37:24;771.28;;;391.63;;
53907;SDS011;40469;47.998;7.794;2023-04-24T02:39:49;776.03;;;383.35;;
53907;SDS011;40469;47.998;7.794;2023-04-24T02:42:15;784.97;;;408.95;;
53907;SDS011;40469;47.998;7.794;2023-04-24T02:44:40;781.22;;;409.77;;
53907;SDS011;40469;47.998;7.794;2023-04-24T02:47:05;803.33;;;398.92;;
53907;SDS011;40469;47.998;7.794;2023-04-24T02:49:31;794.17;;;397.85;;
53907;SDS011;40469;47.998;7.794;2023-04-24T02:51:57;788.78;;;391.77;;
53907;SDS011;40469;47.998;7.794;2023-04-24T02:54:22;812.47;;;416.95;;
53907;SDS011;40469;47.998;7.794;2023-04-24T02:56:48;829.95;;;418.30;;
53907;SDS011;40469;47.998;7.794;2023-04-24T02:59:13;825.30;;;420.67;;
53907;SDS011;40469;47.998;7.794;2023-04-24T03:01:38;816.85;;;397.15;;
53907;SDS011;40469;47.998;7.794;2023-04-24T03:04:04;831.28;;;406.55;;
53907;SDS011;40469;47.998;7.794;2023-04-24T03:06:30;830.83;;;427.17;;
53907;SDS011;40469;47.998;7.794;2023-04-24T03:08:57;837.72;;;415.33;;
53907;SDS011;40469;47.998;7.794;2023-04-24T03:11:23;835.20;;;406.13;;
53907;SDS011;40469;47.998;7.794;2023-04-24T03:13:48;836.95;;;398.48;;
53907;SDS011;40469;47.998;7.794;2023-04-24T03:16:13;841.38;;;405.60;;
53907;SDS011;40469;47.998;7.794;2023-04-24T03:18:39;843.47;;;414.65;;
53907;SDS011;40469;47.998;7.794;2023-04-24T03:21:04;842.45;;;420.90;;
53907;SDS011;40469;47.998;7.794;2023-04-24T03:23:30;832.88;;;394.35;;
53907;SDS011;40469;47.998;7.794;2023-04-24T03:25:55;832.65;;;403.48;;
53907;SDS011;40469;47.998;7.794;2023-04-24T03:28:20;840.25;;;405.90;;
53907;SDS011;40469;47.998;7.794;2023-04-24T03:30:46;839.78;;;400.35;;
53907;SDS011;40469;47.998;7.794;2023-04-24T03:33:11;837.30;;;393.50;;
53907;SDS011;40469;47.998;7.794;2023-04-24T03:35:37;848.20;;;418.70;;
53907;SDS011;40469;47.998;7.794;2023-04-24T03:38:02;851.50;;;418.73;;
53907;SDS011;40469;47.998;7.794;2023-04-24T03:40:29;846.70;;;397.08;;
53907;SDS011;40469;47.998;7.794;2023-04-24T03:42:55;849.75;;;396.25;;
53907;SDS011;40469;47.998;7.794;2023-04-24T03:45:20;852.20;;;407.88;;
53907;SDS011;40469;47.998;7.794;2023-04-24T03:47:45;857.13;;;415.63;;
53907;SDS011;40469;47.998;7.794;2023-04-24T03:50:11;852.20;;;403.98;;
53907;SDS011;40469;47.998;7.794;2023-04-24T03:52:36;848.42;;;391.20;;
53907;SDS011;40469;47.998;7.794;2023-04-24T03:55:01;861.67;;;416.98;;
53907;SDS011;40469;47.998;7.794;2023-04-24T03:57:27;858.45;;;413.73;;
53907;SDS011;40469;47.998;7.794;2023-04-24T03:59:53;852.17;;;404.40;;
53907;SDS011;40469;47.998;7.794;2023-04-24T04:02:18;860.58;;;420.42;;
53907;SDS011;40469;47.998;7.794;2023-04-24T04:04:44;853.80;;;399.67;;
53907;SDS011;40469;47.998;7.794;2023-04-24T04:07:09;853.55;;;400.42;;
53907;SDS011;40469;47.998;7.794;2023-04-24T04:09:36;859.58;;;412.65;;
53907;SDS011;40469;47.998;7.794;2023-04-24T04:12:01;853.05;;;405.33;;
53907;SDS011;40469;47.998;7.794;2023-04-24T04:14:27;864.17;;;426.42;;
53907;SDS011;40469;47.998;7.794;2023-04-24T04:16:53;852.50;;;401.42;;
53907;SDS011;40469;47.998;7.794;2023-04-24T04:19:18;860.05;;;419.17;;
53907;SDS011;40469;47.998;7.794;2023-04-24T04:21:44;861.40;;;424.48;;
53907;SDS011;40469;47.998;7.794;2023-04-24T04:24:10;859.97;;;415.95;;
53907;SDS011;40469;47.998;7.794;2023-04-24T04:26:36;859.30;;;413.15;;
53907;SDS011;40469;47.998;7.794;2023-04-24T04:29:02;855.63;;;411.55;;
53907;SDS011;40469;47.998;7.794;2023-04-24T04:31:28;856.22;;;418.48;;
53907;SDS011;40469;47.998;7.794;2023-04-24T04:33:54;853.15;;;415.50;;
53907;SDS011;40469;47.998;7.794;2023-04-24T04:36:19;853.40;;;413.27;;
53907;SDS011;40469;47.998;7.794;2023-04-24T04:38:45;855.05;;;410.98;;
53907;SDS011;40469;47.998;7.794;2023-04-24T04:41:10;853.55;;;412.75;;
53907;SDS011;40469;47.998;7.794;2023-04-24T04:43:36;849.72;;;409.05;;
53907;SDS011;40469;47.998;7.794;2023-04-24T04:46:01;845.97;;;400.40;;
53907;SDS011;40469;47.998;7.794;2023-04-24T04:51:00;847.45;;;420.33;;
53907;SDS011;40469;47.998;7.794;2023-04-24T04:53:25;855.67;;;429.88;;
53907;SDS011;40469;47.998;7.794;2023-04-24T04:55:51;854.60;;;420.23;;
53907;SDS011;40469;47.998;7.794;2023-04-24T04:58:16;854.33;;;409.10;;
53907;SDS011;40469;47.998;7.794;2023-04-24T05:00:41;861.20;;;426.08;;
53907;SDS011;40469;47.998;7.794;2023-04-24T05:03:07;860.15;;;436.70;;
53907;SDS011;40469;47.998;7.794;2023-04-24T05:05:32;857.22;;;431.27;;
53907;SDS011;40469;47.998;7.794;2023-04-24T05:07:58;846.28;;;411.25;;
53907;SDS011;40469;47.998;7.794;2023-04-24T05:10:23;851.15;;;413.75;;
53907;SDS011;40469;47.998;7.794;2023-04-24T05:12:48;860.03;;;424.85;;
53907;SDS011;40469;47.998;7.794;2023-04-24T05:15:14;862.38;;;431.38;;
53907;SDS011;40469;47.998;7.794;2023-04-24T05:17:39;861.88;;;419.30;;
53907;SDS011;40469;47.998;7.794;2023-04-24T05:20:05;862.92;;;432.85;;
53907;SDS011;40469;47.998;7.794;2023-04-24T05:22:31;860.17;;;419.13;;
53907;SDS011;40469;47.998;7.794;2023-04-24T05:24:57;870.40;;;431.80;;
53907;SDS011;40469;47.998;7.794;2023-04-24T05:27:22;863.10;;;429.25;;
53907;SDS011;40469;47.998;7.794;2023-04-24T05:29:48;857.53;;;411.52;;
53907;SDS011;40469;47.998;7.794;2023-04-24T05:32:14;857.33;;;434.67;;
53907;SDS011;40469;47.998;7.794;2023-04-24T05:34:39;854.40;;;419.08;;
53907;SDS011;40469;47.998;7.794;2023-04-24T05:37:05;853.55;;;414.27;;
53907;SDS011;40469;47.998;7.794;2023-04-24T05:39:33;858.08;;;430.42;;
53907;SDS011;40469;47.998;7.794;2023-04-24T05:42:00;853.72;;;417.55;;
53907;SDS011;40469;47.998;7.794;2023-04-24T05:44:26;860.22;;;418.75;;
53907;SDS011;40469;47.998;7.794;2023-04-24T05:46:51;868.63;;;434.85;;
53907;SDS011;40469;47.998;7.794;2023-04-24T05:49:17;864.03;;;426.45;;
53907;SDS011;40469;47.998;7.794;2023-04-24T05:51:42;869.60;;;436.45;;
53907;SDS011;40469;47.998;7.794;2023-04-24T05:54:07;855.40;;;406.33;;
53907;SDS011;40469;47.998;7.794;2023-04-24T05:56:33;861.55;;;428.42;;
53907;SDS011;40469;47.998;7.794;2023-04-24T05:58:58;861.63;;;428.73;;
53907;SDS011;40469;47.998;7.794;2023-04-24T06:01:23;853.97;;;415.42;;
53907;SDS011;40469;47.998;7.794;2023-04-24T06:03:50;859.20;;;422.05;;
53907;SDS011;40469;47.998;7.794;2023-04-24T06:06:15;861.25;;;424.70;;
53907;SDS011;40469;47.998;7.794;2023-04-24T06:08:41;855.38;;;418.73;;
53907;SDS011;40469;47.998;7.794;2023-04-24T06:11:10;873.80;;;425.55;;
53907;SDS011;40469;47.998;7.794;2023-04-24T06:13:36;879.05;;;431.10;;
53907;SDS011;40469;47.998;7.794;2023-04-24T06:16:01;867.45;;;427.90;;
53907;SDS011;40469;47.998;7.794;2023-04-24T06:18:26;862.40;;;426.77;;
53907;SDS011;40469;47.998;7.794;2023-04-24T06:20:52;866.67;;;439.73;;
53907;SDS011;40469;47.998;7.794;2023-04-24T06:23:17;867.45;;;438.88;;
53907;SDS011;40469;47.998;7.794;2023-04-24T06:25:42;861.08;;;431.77;;
53907;SDS011;40469;47.998;7.794;2023-04-24T06:28:08;849.20;;;417.55;;
53907;SDS011;40469;47.998;7.794;2023-04-24T06:30:33;848.42;;;430.58;;
53907;SDS011;40469;47.998;7.794;2023-04-24T06:32:58;844.15;;;418.08;;
53907;SDS011;40469;47.998;7.794;2023-04-24T06:35:24;851.53;;;416.15;;
53907;SDS011;40469;47.998;7.794;2023-04-24T06:37:49;860.85;;;426.08;;
53907;SDS011;40469;47.998;7.794;2023-04-24T06:40:15;867.35;;;424.17;;
53907;SDS011;40469;47.998;7.794;2023-04-24T06:42:40;857.85;;;409.05;;
53907;SDS011;40469;47.998;7.794;2023-04-24T06:45:06;866.05;;;424.23;;
53907;SDS011;40469;47.998;7.794;2023-04-24T06:47:31;866.75;;;410.83;;
53907;SDS011;40469;47.998;7.794;2023-04-24T06:49:57;855.38;;;418.48;;
53907;SDS011;40469;47.998;7.794;2023-04-24T06:52:23;850.85;;;409.55;;
53907;SDS011;40469;47.998;7.794;2023-04-24T06:54:48;869.08;;;425.15;;
53907;SDS011;40469;47.998;7.794;2023-04-24T06:57:14;864.20;;;419.85;;
53907;SDS011;40469;47.998;7.794;2023-04-24T06:59:41;861.28;;;417.05;;
53907;SDS011;40469;47.998;7.794;2023-04-24T07:02:06;857.05;;;415.58;;
53907;SDS011;40469;47.998;7.794;2023-04-24T07:04:31;854.08;;;400.70;;
53907;SDS011;40469;47.998;7.794;2023-04-24T07:06:57;836.28;;;399.65;;
53907;SDS011;40469;47.998;7.794;2023-04-24T07:09:23;849.33;;;420.23;;
53907;SDS011;40469;47.998;7.794;2023-04-24T07:11:50;839.50;;;404.05;;
53907;SDS011;40469;47.998;7.794;2023-04-24T07:14:16;836.50;;;429.15;;
53907;SDS011;40469;47.998;7.794;2023-04-24T07:16:42;857.45;;;420.05;;
53907;SDS011;40469;47.998;7.794;2023-04-24T07:19:08;859.20;;;428.23;;
53907;SDS011;40469;47.998;7.794;2023-04-24T07:21:34;837.95;;;419.38;;
53907;SDS011;40469;47.998;7.794;2023-04-24T07:23:59;855.97;;;411.92;;
53907;SDS011;40469;47.998;7.794;2023-04-24T07:26:25;854.45;;;426.60;;
53907;SDS011;40469;47.998;7.794;2023-04-24T07:28:51;846.67;;;426.58;;
53907;SDS011;40469;47.998;7.794;2023-04-24T07:31:17;852.63;;;414.23;;
53907;SDS011;40469;47.998;7.794;2023-04-24T07:33:42;866.53;;;421.25;;
53907;SDS011;40469;47.998;7.794;2023-04-24T07:36:08;862.72;;;420.85;;
53907;SDS011;40469;47.998;7.794;2023-04-24T07:38:33;860.25;;;423.45;;
53907;SDS011;40469;47.998;7.794;2023-04-24T07:40:58;858.55;;;423.13;;
53907;SDS011;40469;47.998;7.794;2023-04-24T07:43:24;854.53;;;419.70;;
53907;SDS011;40469;47.998;7.794;2023-04-24T07:45:50;848.65;;;424.52;;
53907;SDS011;40469;47.998;7.794;2023-04-24T07:48:16;847.65;;;411.15;;
53907;SDS011;40469;47.998;7.794;2023-04-24T07:50:43;857.65;;;426.05;;
53907;SDS011;40469;47.998;7.794;2023-04-24T07:53:09;857.83;;;415.42;;
53907;SDS011;40469;47.998;7.794;2023-04-24T07:55:35;855.72;;;431.77;;
53907;SDS011;40469;47.998;7.794;2023-04-24T07:58:00;857.00;;;430.95;;
53907;SDS011;40469;47.998;7.794;2023-04-24T08:00:26;846.67;;;416.27;;
53907;SDS011;40469;47.998;7.794;2023-04-24T08:02:51;867.15;;;436.38;;
53907;SDS011;40469;47.998;7.794;2023-04-24T08:05:16;853.88;;;420.58;;
53907;SDS011;40469;47.998;7.794;2023-04-24T08:07:42;847.92;;;431.55;;
53907;SDS011;40469;47.998;7.794;2023-04-24T08:10:09;844.85;;;417.48;;
53907;SDS011;40469;47.998;7.794;2023-04-24T08:12:36;843.85;;;414.73;;
53907;SDS011;40469;47.998;7.794;2023-04-24T08:15:02;846.63;;;431.13;;
53907;SDS011;40469;47.998;7.794;2023-04-24T08:17:28;844.63;;;414.25;;
53907;SDS011;40469;47.998;7.794;2023-04-24T08:19:53;842.83;;;413.73;;
53907;SDS011;40469;47.998;7.794;2023-04-24T08:22:26;837.65;;;425.45;;
53907;SDS011;40469;47.998;7.794;2023-04-24T08:24:52;858.25;;;424.02;;
53907;SDS011;40469;47.998;7.794;2023-04-24T08:27:17;855.58;;;417.17;;
53907;SDS011;40469;47.998;7.794;2023-04-24T08:29:43;862.92;;;423.58;;
53907;SDS011;40469;47.998;7.794;2023-04-24T08:32:08;847.08;;;421.80;;
53907;SDS011;40469;47.998;7.794;2023-04-24T08:34:33;853.63;;;443.15;;
53907;SDS011;40469;47.998;7.794;2023-04-24T08:36:59;855.20;;;446.60;;
53907;SDS011;40469;47.998;7.794;2023-04-24T08:39:24;855.80;;;446.95;;
53907;SDS011;40469;47.998;7.794;2023-04-24T08:41:49;853.17;;;441.27;;
53907;SDS011;40469;47.998;7.794;2023-04-24T08:44:17;848.17;;;430.13;;
53907;SDS011;40469;47.998;7.794;2023-04-24T08:46:44;837.63;;;467.25;;
53907;SDS011;40469;47.998;7.794;2023-04-24T08:49:11;860.80;;;437.48;;
53907;SDS011;40469;47.998;7.794;2023-04-24T08:51:39;842.60;;;471.85;;
53907;SDS011;40469;47.998;7.794;2023-04-24T08:54:04;822.05;;;440.90;;
53907;SDS011;40469;47.998;7.794;2023-04-24T08:56:30;840.70;;;424.60;;
53907;SDS011;40469;47.998;7.794;2023-04-24T08:58:58;852.78;;;430.95;;
53907;SDS011;40469;47.998;7.794;2023-04-24T09:01:24;841.70;;;430.83;;
53907;SDS011;40469;47.998;7.794;2023-04-24T09:03:50;827.17;;;409.23;;
53907;SDS011;40469;47.998;7.794;2023-04-24T09:06:17;832.03;;;422.90;;
53907;SDS011;40469;47.998;7.794;2023-04-24T09:08:44;802.20;;;408.55;;
53907;SDS011;40469;47.998;7.794;2023-04-24T09:11:10;793.70;;;400.55;;
53907;SDS011;40469;47.998;7.794;2023-04-24T09:13:36;814.40;;;414.00;;
53907;SDS011;40469;47.998;7.794;2023-04-24T09:16:02;805.03;;;396.17;;
53907;SDS011;40469;47.998;7.794;2023-04-24T09:18:28;806.03;;;399.85;;
53907;SDS011;40469;47.998;7.794;2023-04-24T09:21:00;805.65;;;416.35;;
53907;SDS011;40469;47.998;7.794;2023-04-24T09:23:27;791.30;;;389.85;;
53907;SDS011;40469;47.998;7.794;2023-04-24T09:25:55;797.05;;;411.50;;
53907;SDS011;40469;47.998;7.794;2023-04-24T09:28:25;804.95;;;415.67;;
53907;SDS011;40469;47.998;7.794;2023-04-24T09:33:40;787.05;;;408.73;;
53907;SDS011;40469;47.998;7.794;2023-04-24T09:36:19;807.78;;;421.15;;
53907;SDS011;40469;47.998;7.794;2023-04-24T09:38:53;789.50;;;409.27;;
53907;SDS011;40469;47.998;7.794;2023-04-24T09:41:22;788.33;;;393.38;;
53907;SDS011;40469;47.998;7.794;2023-04-24T09:43:47;784.35;;;391.73;;
53907;SDS011;40469;47.998;7.794;2023-04-24T09:46:13;784.28;;;405.17;;
53907;SDS011;40469;47.998;7.794;2023-04-24T09:48:38;786.90;;;412.60;;
53907;SDS011;40469;47.998;7.794;2023-04-24T09:51:05;787.78;;;406.95;;
53907;SDS011;40469;47.998;7.794;2023-04-24T09:53:37;787.10;;;401.58;;
53907;SDS011;40469;47.998;7.794;2023-04-24T09:56:07;773.50;;;396.15;;
53907;SDS011;40469;47.998;7.794;2023-04-24T09:58:34;800.67;;;408.33;;
53907;SDS011;40469;47.998;7.794;2023-04-24T10:01:00;816.20;;;411.05;;
53907;SDS011;40469;47.998;7.794;2023-04-24T10:03:27;825.78;;;386.65;;
53907;SDS011;40469;47.998;7.794;2023-04-24T10:05:58;813.38;;;398.60;;
53907;SDS011;40469;47.998;7.794;2023-04-24T10:08:32;817.88;;;411.65;;
53907;SDS011;40469;47.998;7.794;2023-04-24T10:10:59;803.60;;;389.65;;
53907;SDS011;40469;47.998;7.794;2023-04-24T10:13:25;776.80;;;352.95;;
53907;SDS011;40469;47.998;7.794;2023-04-24T10:15:51;787.22;;;382.13;;
53907;SDS011;40469;47.998;7.794;2023-04-24T10:18:17;787.92;;;375.67;;
53907;SDS011;40469;47.998;7.794;2023-04-24T10:20:43;775.05;;;358.02;;
53907;SDS011;40469;47.998;7.794;2023-04-24T10:23:08;785.25;;;371.13;;
53907;SDS011;40469;47.998;7.794;2023-04-24T10:25:34;796.20;;;377.08;;
53907;SDS011;40469;47.998;7.794;2023-04-24T10:28:01;784.95;;;350.73;;
53907;SDS011;40469;47.998;7.794;2023-04-24T10:30:29;775.30;;;368.75;;
53907;SDS011;40469;47.998;7.794;2023-04-24T10:32:55;780.92;;;345.73;;
53907;SDS011;40469;47.998;7.794;2023-04-24T10:35:21;805.90;;;442.90;;
53907;SDS011;40469;47.998;7.794;2023-04-24T10:37:53;806.03;;;402.13;;
53907;SDS011;40469;47.998;7.794;2023-04-24T10:40:30;805.63;;;408.58;;
53907;SDS011;40469;47.998;7.794;2023-04-24T10:42:57;822.50;;;424.05;;
53907;SDS011;40469;47.998;7.794;2023-04-24T10:45:23;797.08;;;402.45;;
53907;SDS011;40469;47.998;7.794;2023-04-24T10:48:02;790.08;;;399.13;;
53907;SDS011;40469;47.998;7.794;2023-04-24T10:50:28;801.22;;;400.83;;
53907;SDS011;40469;47.998;7.794;2023-04-24T10:53:07;798.33;;;393.63;;
53907;SDS011;40469;47.998;7.794;2023-04-24T10:58:15;800.20;;;398.90;;
53907;SDS011;40469;47.998;7.794;2023-04-24T11:00:42;782.78;;;361.80;;
53907;SDS011;40469;47.998;7.794;2023-04-24T11:03:24;728.47;;;318.45;;
53907;SDS011;40469;47.998;7.794;2023-04-24T11:05:55;748.78;;;402.67;;
53907;SDS011;40469;47.998;7.794;2023-04-24T11:08:29;729.65;;;371.83;;
53907;SDS011;40469;47.998;7.794;2023-04-24T11:10:57;729.15;;;385.65;;
53907;SDS011;40469;47.998;7.794;2023-04-24T11:16:31;687.63;;;373.00;;
53907;SDS011;40469;47.998;7.794;2023-04-24T11:19:10;701.50;;;397.27;;
53907;SDS011;40469;47.998;7.794;2023-04-24T11:21:45;699.47;;;358.73;;
53907;SDS011;40469;47.998;7.794;2023-04-24T11:26:57;708.28;;;453.17;;
53907;SDS011;40469;47.998;7.794;2023-04-24T11:29:39;763.63;;;465.50;;
53907;SDS011;40469;47.998;7.794;2023-04-24T11:32:16;748.17;;;499.63;;
53907;SDS011;40469;47.998;7.794;2023-04-24T11:34:50;686.60;;;418.45;;
53907;SDS011;40469;47.998;7.794;2023-04-24T11:37:21;623.88;;;428.75;;
53907;SDS011;40469;47.998;7.794;2023-04-24T11:39:50;654.78;;;432.92;;
53907;SDS011;40469;47.998;7.794;2023-04-24T11:42:16;641.65;;;458.38;;
53907;SDS011;40469;47.998;7.794;2023-04-24T11:44:42;695.97;;;485.60;;
53907;SDS011;40469;47.998;7.794;2023-04-24T11:47:08;533.05;;;475.50;;
53907;SDS011;40469;47.998;7.794;2023-04-24T11:49:33;569.55;;;274.88;;
53907;SDS011;40469;47.998;7.794;2023-04-24T11:52:01;294.70;;;124.38;;
53907;SDS011;40469;47.998;7.794;2023-04-24T11:54:27;187.88;;;109.72;;
53907;SDS011;40469;47.998;7.794;2023-04-24T11:56:53;156.80;;;100.15;;
53907;SDS011;40469;47.998;7.794;2023-04-24T11:59:18;149.10;;;97.53;;
53907;SDS011;40469;47.998;7.794;2023-04-24T12:01:44;144.68;;;95.85;;
53907;SDS011;40469;47.998;7.794;2023-04-24T12:04:10;107.00;;;83.25;;
53907;SDS011;40469;47.998;7.794;2023-04-24T12:06:36;89.05;;;76.13;;
53907;SDS011;40469;47.998;7.794;2023-04-24T12:09:02;131.20;;;92.13;;
53907;SDS011;40469;47.998;7.794;2023-04-24T12:11:27;143.15;;;97.30;;
53907;SDS011;40469;47.998;7.794;2023-04-24T12:13:53;111.45;;;85.68;;
53907;SDS011;40469;47.998;7.794;2023-04-24T12:16:19;93.43;;;78.40;;
53907;SDS011;40469;47.998;7.794;2023-04-24T12:18:45;105.88;;;83.95;;
53907;SDS011;40469;47.998;7.794;2023-04-24T12:21:14;92.30;;;78.20;;
53907;SDS011;40469;47.998;7.794;2023-04-24T12:23:47;96.47;;;80.07;;
53907;SDS011;40469;47.998;7.794;2023-04-24T12:26:19;88.72;;;76.68;;
53907;SDS011;40469;47.998;7.794;2023-04-24T12:28:47;81.40;;;72.50;;
53907;SDS011;40469;47.998;7.794;2023-04-24T12:31:16;86.97;;;75.82;;
53907;SDS011;40469;47.998;7.794;2023-04-24T12:33:42;87.07;;;75.38;;
53907;SDS011;40469;47.998;7.794;2023-04-24T12:36:11;90.15;;;76.72;;
53907;SDS011;40469;47.998;7.794;2023-04-24T12:38:37;71.78;;;64.60;;
53907;SDS011;40469;47.998;7.794;2023-04-24T12:41:07;67.72;;;61.33;;
53907;SDS011;40469;47.998;7.794;2023-04-24T12:43:34;75.13;;;67.30;;
53907;SDS011;40469;47.998;7.794;2023-04-24T12:46:00;74.00;;;66.43;;
53907;SDS011;40469;47.998;7.794;2023-04-24T12:48:28;68.72;;;62.03;;
53907;SDS011;40469;47.998;7.794;2023-04-24T12:50:56;67.50;;;61.15;;
53907;SDS011;40469;47.998;7.794;2023-04-24T12:53:25;71.38;;;64.32;;
53907;SDS011;40469;47.998;7.794;2023-04-24T12:55:51;81.60;;;72.78;;
53907;SDS011;40469;47.998;7.794;2023-04-24T12:58:18;76.65;;;68.60;;
53907;SDS011;40469;47.998;7.794;2023-04-24T13:00:45;77.68;;;69.07;;
53907;SDS011;40469;47.998;7.794;2023-04-24T13:03:11;88.72;;;76.88;;
53907;SDS011;40469;47.998;7.794;2023-04-24T13:05:39;75.05;;;67.47;;
53907;SDS011;40469;47.998;7.794;2023-04-24T13:08:05;77.43;;;69.35;;
53907;SDS011;40469;47.998;7.794;2023-04-24T13:10:30;78.35;;;70.00;;
53907;SDS011;40469;47.998;7.794;2023-04-24T13:12:56;77.63;;;69.53;;
53907;SDS011;40469;47.998;7.794;2023-04-24T13:15:21;78.85;;;70.47;;
53907;SDS011;40469;47.998;7.794;2023-04-24T13:17:47;74.00;;;66.63;;
53907;SDS011;40469;47.998;7.794;2023-04-24T13:20:12;73.57;;;66.30;;
53907;SDS011;40469;47.998;7.794;2023-04-24T13:22:38;72.22;;;65.15;;
53907;SDS011;40469;47.998;7.794;2023-04-24T13:25:03;72.63;;;65.53;;
53907;SDS011;40469;47.998;7.794;2023-04-24T13:27:30;74.53;;;67.10;;
53907;SDS011;40469;47.998;7.794;2023-04-24T13:29:59;71.65;;;64.38;;
53907;SDS011;40469;47.998;7.794;2023-04-24T13:32:25;71.18;;;64.20;;
53907;SDS011;40469;47.998;7.794;2023-04-24T13:34:50;64.93;;;59.05;;
53907;SDS011;40469;47.998;7.794;2023-04-24T13:37:15;64.88;;;59.00;;
53907;SDS011;40469;47.998;7.794;2023-04-24T13:39:41;60.93;;;55.70;;
53907;SDS011;40469;47.998;7.794;2023-04-24T13:42:06;63.77;;;58.03;;
53907;SDS011;40469;47.998;7.794;2023-04-24T13:44:31;62.93;;;57.33;;
53907;SDS011;40469;47.998;7.794;2023-04-24T13:46:57;59.33;;;54.30;;
53907;SDS011;40469;47.998;7.794;2023-04-24T13:49:23;63.13;;;57.58;;
53907;SDS011;40469;47.998;7.794;2023-04-24T13:51:50;65.00;;;58.90;;
53907;SDS011;40469;47.998;7.794;2023-04-24T13:54:16;56.75;;;52.25;;
53907;SDS011;40469;47.998;7.794;2023-04-24T13:56:42;54.90;;;50.63;;
53907;SDS011;40469;47.998;7.794;2023-04-24T14:03:58;128.25;;;90.38;;
53907;SDS011;40469;47.998;7.794;2023-04-24T14:06:24;72.90;;;65.65;;
53907;SDS011;40469;47.998;7.794;2023-04-24T14:08:50;61.47;;;56.22;;
53907;SDS011;40469;47.998;7.794;2023-04-24T14:11:16;61.70;;;56.38;;
53907;SDS011;40469;47.998;7.794;2023-04-24T14:16:08;262.90;;;126.67;;
53907;SDS011;40469;47.998;7.794;2023-04-24T14:18:34;91.18;;;77.35;;